Time;durP1;ratioP1;P1;durP2;ratioP2;P2;SDS_P1;SDS_P2;PMS_P1;PMS_P2;Temp;Humidity;BMP_temperature;BMP_pressure;BME280_temperature;BME280_humidity;BME280_pressure;Samples;Min_cycle;Max_cycle;Signal;HPM_P1;HPM_P2
2021/11/16 00:00:52;;;;;;;57.35;31.80;;;7.30;94.70;;;;;;5018079;28;20246;-77
2021/11/16 00:03:18;;;;;;;59.97;32.45;;;7.30;94.70;;;;;;5034824;28;20433;-77
2021/11/16 00:05:44;;;;;;;64.50;33.15;;;7.20;94.70;;;;;;5051849;28;20028;-77
2021/11/16 00:08:10;;;;;;;74.40;35.13;;;7.30;94.80;;;;;;5053177;28;20070;-77
2021/11/16 00:10:37;;;;;;;59.80;33.83;;;7.30;94.80;;;;;;5037098;28;20044;-77
2021/11/16 00:13:04;;;;;;;64.35;33.53;;;7.30;94.80;;;;;;5047040;28;20728;-77
2021/11/16 00:15:30;;;;;;;62.00;33.78;;;7.30;94.80;;;;;;5052070;28;20028;-77
2021/11/16 00:17:56;;;;;;;60.45;32.75;;;7.30;94.90;;;;;;5037718;28;20036;-78
2021/11/16 00:20:22;;;;;;;55.72;32.08;;;7.30;94.90;;;;;;5037927;28;20508;-77
2021/11/16 00:22:48;;;;;;;64.70;35.13;;;7.30;94.90;;;;;;5054334;28;20039;-77
2021/11/16 00:27:43;;;;;;;71.30;35.65;;;7.30;94.90;;;;;;5054493;28;20028;-77
2021/11/16 00:30:10;;;;;;;64.55;33.05;;;7.30;94.90;;;;;;5033253;28;20041;-77
2021/11/16 00:32:36;;;;;;;67.25;34.65;;;7.30;94.90;;;;;;5043979;28;20032;-77
2021/11/16 00:35:04;;;;;;;65.18;33.00;;;7.30;94.90;;;;;;5019765;28;20120;-77
2021/11/16 00:37:30;;;;;;;60.72;31.90;;;7.30;94.80;;;;;;5062458;28;20044;-77
2021/11/16 00:39:58;;;;;;;64.70;33.70;;;7.30;94.90;;;;;;5055627;28;20028;-77
2021/11/16 00:42:27;;;;;;;65.80;35.17;;;7.30;94.90;;;;;;5057319;28;20380;-77
2021/11/16 00:44:54;;;;;;;65.32;34.72;;;7.30;94.90;;;;;;5057346;28;20031;-77
2021/11/16 00:47:20;;;;;;;62.50;34.05;;;7.30;94.90;;;;;;5058168;28;20420;-76
2021/11/16 00:49:47;;;;;;;59.47;33.55;;;7.30;94.90;;;;;;5041646;28;20035;-77
2021/11/16 00:52:12;;;;;;;64.75;36.00;;;7.40;95.20;;;;;;5058359;28;20055;-77
2021/11/16 00:54:38;;;;;;;70.47;37.47;;;7.40;94.90;;;;;;5058090;28;20091;-77
2021/11/16 00:57:05;;;;;;;70.05;35.65;;;7.30;94.80;;;;;;5053394;28;20028;-77
2021/11/16 00:59:31;;;;;;;63.72;35.33;;;7.40;94.80;;;;;;5038172;28;20546;-77
2021/11/16 01:01:57;;;;;;;66.82;34.80;;;7.30;94.90;;;;;;5071694;28;20029;-77
2021/11/16 01:04:26;;;;;;;66.75;35.70;;;7.40;95.00;;;;;;5075387;28;20024;-77
2021/11/16 01:06:53;;;;;;;72.63;38.33;;;7.30;94.90;;;;;;5058400;28;20021;-77
2021/11/16 01:09:19;;;;;;;65.35;35.78;;;7.40;94.90;;;;;;5075438;28;20031;-77
2021/11/16 01:11:46;;;;;;;64.38;35.25;;;7.30;94.90;;;;;;5075612;28;20051;-77
2021/11/16 01:14:11;;;;;;;67.57;35.20;;;7.30;94.90;;;;;;5037880;28;20057;-81
2021/11/16 01:16:38;;;;;;;63.03;35.88;;;7.30;94.90;;;;;;5037853;28;20057;-81
2021/11/16 01:19:07;;;;;;;69.85;35.28;;;7.30;94.90;;;;;;5035093;28;20029;-80
2021/11/16 01:21:34;;;;;;;64.38;35.70;;;7.30;95.00;;;;;;5037763;28;20025;-81
2021/11/16 01:24:01;;;;;;;70.03;36.30;;;7.30;95.00;;;;;;5037544;28;20017;-81
2021/11/16 01:26:27;;;;;;;72.18;38.08;;;7.30;95.00;;;;;;5074226;28;20029;-81
2021/11/16 01:28:55;;;;;;;80.45;39.25;;;7.30;95.00;;;;;;5057717;28;20107;-81
2021/11/16 01:31:20;;;;;;;72.43;38.20;;;7.30;95.10;;;;;;5057494;28;20020;-80
2021/11/16 01:33:57;;;;;;;70.95;38.20;;;7.30;95.00;;;;;;5075445;28;20033;-80
2021/11/16 01:36:23;;;;;;;73.22;39.08;;;7.30;95.00;;;;;;5057243;28;20024;-80
2021/11/16 01:38:51;;;;;;;69.10;36.67;;;7.30;95.00;;;;;;5057149;28;20473;-80
2021/11/16 01:41:18;;;;;;;75.70;39.40;;;7.30;95.00;;;;;;5057054;28;20473;-80
2021/11/16 01:43:44;;;;;;;76.47;38.47;;;7.30;95.10;;;;;;5074887;28;20017;-80
2021/11/16 01:46:13;;;;;;;74.43;38.70;;;7.30;95.10;;;;;;5054901;28;20392;-81
2021/11/16 01:48:41;;;;;;;71.30;38.50;;;7.30;95.10;;;;;;5071166;28;20064;-81
2021/11/16 01:51:06;;;;;;;77.93;39.22;;;7.30;95.20;;;;;;5072036;28;20055;-81
2021/11/16 01:53:32;;;;;;;71.55;37.72;;;7.30;95.20;;;;;;5034106;28;20127;-81
2021/11/16 01:56:00;;;;;;;69.22;37.90;;;7.30;95.20;;;;;;5066714;28;20036;-80
2021/11/16 01:58:26;;;;;;;74.93;37.70;;;7.30;95.20;;;;;;5073796;28;20025;-81
2021/11/16 02:00:53;;;;;;;74.57;40.20;;;7.30;95.20;;;;;;5055678;28;20892;-81
2021/11/16 02:03:19;;;;;;;74.13;37.30;;;7.30;95.20;;;;;;5039869;28;20028;-81
2021/11/16 02:05:50;;;;;;;73.65;38.55;;;7.30;95.20;;;;;;5055688;28;20028;-81
2021/11/16 02:08:17;;;;;;;74.00;39.92;;;7.30;95.20;;;;;;5056145;28;20802;-81
2021/11/16 02:10:46;;;;;;;79.00;41.17;;;7.30;95.30;;;;;;5044488;28;20143;-81
2021/11/16 02:13:12;;;;;;;79.95;40.05;;;7.30;95.30;;;;;;5049130;28;20024;-80
2021/11/16 02:15:38;;;;;;;74.50;39.95;;;7.30;95.30;;;;;;5073602;28;20044;-80
2021/11/16 02:18:09;;;;;;;76.05;40.47;;;7.30;95.30;;;;;;5073957;28;20066;-81
2021/11/16 02:20:37;;;;;;;76.53;41.42;;;7.30;95.30;;;;;;5051728;28;20032;-80
2021/11/16 02:23:04;;;;;;;77.33;41.23;;;7.30;95.30;;;;;;5055225;28;20115;-80
2021/11/16 02:25:30;;;;;;;80.75;41.58;;;7.30;95.20;;;;;;5055732;28;20027;-80
2021/11/16 02:27:56;;;;;;;79.55;41.83;;;7.30;95.20;;;;;;5055883;28;20032;-81
2021/11/16 02:30:24;;;;;;;80.47;42.30;;;7.30;95.20;;;;;;5072541;28;20493;-81
2021/11/16 02:32:54;;;;;;;81.77;42.33;;;7.30;95.20;;;;;;5055129;28;20040;-81
2021/11/16 02:35:22;;;;;;;76.68;41.42;;;7.30;95.30;;;;;;5073195;28;20316;-81
2021/11/16 02:37:48;;;;;;;83.38;42.10;;;7.30;95.20;;;;;;5057927;28;20078;-81
2021/11/16 02:40:15;;;;;;;77.82;41.60;;;7.40;95.30;;;;;;5060583;28;20028;-81
2021/11/16 02:42:41;;;;;;;76.78;39.60;;;7.40;95.30;;;;;;5038963;28;20035;-81
2021/11/16 02:45:08;;;;;;;78.20;40.15;;;7.40;95.30;;;;;;5021455;28;20021;-81
2021/11/16 02:47:34;;;;;;;84.82;44.00;;;7.40;95.20;;;;;;5055251;28;20079;-80
2021/11/16 02:50:00;;;;;;;87.20;45.45;;;7.30;95.20;;;;;;5055480;28;20064;-81
2021/11/16 02:52:26;;;;;;;76.22;40.22;;;7.40;95.30;;;;;;5073000;28;20107;-81
2021/11/16 02:54:52;;;;;;;84.00;44.17;;;7.40;95.40;;;;;;5054748;28;20028;-81
2021/11/16 02:57:18;;;;;;;89.53;45.65;;;7.30;95.40;;;;;;5070865;28;20059;-81
2021/11/16 02:59:44;;;;;;;78.95;41.50;;;7.40;95.40;;;;;;5053901;28;20052;-81
2021/11/16 03:02:10;;;;;;;85.82;44.53;;;7.40;95.40;;;;;;5067826;28;20032;-81
2021/11/16 03:04:39;;;;;;;80.70;44.42;;;7.30;95.30;;;;;;5052983;28;20025;-81
2021/11/16 03:07:05;;;;;;;79.53;43.92;;;7.40;95.30;;;;;;5072031;28;20013;-81
2021/11/16 03:09:33;;;;;;;89.28;45.53;;;7.40;95.20;;;;;;5054441;28;20049;-80
2021/11/16 03:12:00;;;;;;;84.13;44.60;;;7.40;95.20;;;;;;5071352;28;20547;-81
2021/11/16 03:14:26;;;;;;;83.88;45.83;;;7.40;95.50;;;;;;5051384;28;20477;-80
2021/11/16 03:16:52;;;;;;;85.00;45.72;;;7.40;95.20;;;;;;5036486;28;20044;-81
2021/11/16 03:19:18;;;;;;;81.60;44.38;;;7.40;95.20;;;;;;5023674;28;21757;-80
2021/11/16 03:21:53;;;;;;;82.75;44.45;;;7.40;95.30;;;;;;5048736;28;20037;-80
2021/11/16 03:24:20;;;;;;;88.55;46.47;;;7.40;95.20;;;;;;5050486;28;20524;-81
2021/11/16 03:26:46;;;;;;;83.93;44.38;;;7.30;95.20;;;;;;5069902;28;20025;-81
2021/11/16 03:29:12;;;;;;;79.75;43.70;;;7.40;95.30;;;;;;5055171;28;20021;-81
2021/11/16 03:31:48;;;;;;;86.28;44.35;;;7.40;95.30;;;;;;5035135;28;20083;-81
2021/11/16 03:34:13;;;;;;;87.45;44.97;;;7.30;95.30;;;;;;5055941;28;20021;-81
2021/11/16 03:36:39;;;;;;;89.78;44.03;;;7.30;95.30;;;;;;5054732;28;20086;-81
2021/11/16 03:39:05;;;;;;;83.20;43.65;;;7.30;95.30;;;;;;5054613;28;20029;-81
2021/11/16 03:41:31;;;;;;;83.20;45.50;;;7.40;95.30;;;;;;5055155;28;20031;-81
2021/11/16 03:43:56;;;;;;;93.78;48.10;;;7.40;95.30;;;;;;5072738;28;20080;-81
2021/11/16 03:46:23;;;;;;;87.78;47.42;;;7.40;95.30;;;;;;5054742;28;20040;-80
2021/11/16 03:48:48;;;;;;;80.20;44.22;;;7.30;95.50;;;;;;5034701;28;20053;-81
2021/11/16 03:51:14;;;;;;;86.22;46.30;;;7.30;95.30;;;;;;5051701;28;20025;-81
2021/11/16 03:53:40;;;;;;;87.18;44.47;;;7.30;95.30;;;;;;5051492;28;20363;-81
2021/11/16 03:56:07;;;;;;;91.35;47.53;;;7.30;95.30;;;;;;5031552;28;20087;-81
2021/11/16 03:58:32;;;;;;;85.35;44.95;;;7.30;95.30;;;;;;5030197;28;20048;-81
2021/11/16 04:01:08;;;;;;;85.72;46.50;;;7.30;95.20;;;;;;5031287;28;20470;-81
2021/11/16 04:03:37;;;;;;;97.70;48.78;;;7.30;95.30;;;;;;5050547;28;20478;-81
2021/11/16 04:06:04;;;;;;;88.95;47.40;;;7.30;95.20;;;;;;5051314;28;20024;-80
2021/11/16 04:08:30;;;;;;;90.32;47.15;;;7.30;95.20;;;;;;5051011;28;20052;-81
2021/11/16 04:10:55;;;;;;;84.40;47.38;;;7.30;95.20;;;;;;5048649;28;20068;-81
2021/11/16 04:13:21;;;;;;;86.65;47.17;;;7.30;95.20;;;;;;5054128;28;20103;-81
2021/11/16 04:15:49;;;;;;;90.35;47.28;;;7.30;95.20;;;;;;5052860;28;20040;-80
2021/11/16 04:18:16;;;;;;;91.63;47.05;;;7.30;95.20;;;;;;5034790;28;20025;-81
2021/11/16 04:20:46;;;;;;;92.43;48.78;;;7.30;95.20;;;;;;5051865;28;20037;-81
2021/11/16 04:23:14;;;;;;;90.05;44.70;;;7.40;95.30;;;;;;5046936;28;20044;-81
2021/11/16 04:25:41;;;;;;;93.32;48.95;;;7.40;95.20;;;;;;5042313;28;20489;-81
2021/11/16 04:28:09;;;;;;;95.43;48.85;;;7.30;95.20;;;;;;5050427;28;20018;-80
2021/11/16 04:30:35;;;;;;;90.65;47.55;;;7.40;95.20;;;;;;5014902;28;20041;-80
2021/11/16 04:33:02;;;;;;;86.82;46.58;;;7.40;95.20;;;;;;5054334;28;20439;-81
2021/11/16 04:35:30;;;;;;;83.35;46.25;;;7.30;95.20;;;;;;5052771;28;20036;-81
2021/11/16 04:37:59;;;;;;;89.40;46.67;;;7.40;95.10;;;;;;5052535;28;20527;-80
2021/11/16 04:40:33;;;;;;;88.30;47.65;;;7.40;95.10;;;;;;5052675;28;20041;-80
2021/11/16 04:43:04;;;;;;;93.57;48.85;;;7.30;95.10;;;;;;5045768;28;20025;-80
2021/11/16 04:45:29;;;;;;;86.60;47.35;;;7.40;95.40;;;;;;5053551;28;20063;-81
2021/11/16 04:48:21;;;;;;;92.25;46.90;;;7.40;95.10;;;;;;5028889;28;20121;-81
2021/11/16 05:04:07;;;;;;;95.13;47.95;;;7.30;95.20;;;;;;5039396;28;20056;-81
2021/11/16 05:06:33;;;;;;;100.30;50.88;;;7.30;95.30;;;;;;5051290;28;20470;-80
2021/11/16 05:08:59;;;;;;;109.57;51.92;;;7.40;95.40;;;;;;5052780;28;20025;-80
2021/11/16 05:11:25;;;;;;;100.18;52.28;;;7.40;95.40;;;;;;5052499;28;20040;-80
2021/11/16 05:13:54;;;;;;;108.97;53.55;;;7.40;95.40;;;;;;5051212;28;20086;-81
2021/11/16 05:16:22;;;;;;;105.50;49.38;;;7.40;95.40;;;;;;5053206;28;20029;-81
2021/11/16 05:18:48;;;;;;;103.13;50.40;;;7.40;95.40;;;;;;5052420;28;20494;-81
2021/11/16 05:21:15;;;;;;;109.95;52.83;;;7.30;95.40;;;;;;5052332;28;20056;-81
2021/11/16 05:23:52;;;;;;;100.10;49.47;;;7.30;95.40;;;;;;5050808;28;20025;-81
2021/11/16 05:26:18;;;;;;;111.10;52.15;;;7.40;95.50;;;;;;5040895;28;20067;-80
2021/11/16 05:28:45;;;;;;;100.28;52.20;;;7.40;95.40;;;;;;5049134;28;20442;-80
2021/11/16 05:31:11;;;;;;;109.60;52.53;;;7.40;95.40;;;;;;5052057;28;20496;-80
2021/11/16 05:33:36;;;;;;;94.80;49.55;;;7.30;95.40;;;;;;5037916;28;20037;-81
2021/11/16 05:36:02;;;;;;;113.00;53.92;;;7.30;95.50;;;;;;5042832;28;20044;-81
2021/11/16 05:38:31;;;;;;;97.45;50.10;;;7.30;95.50;;;;;;5034783;28;20033;-81
2021/11/16 05:40:58;;;;;;;102.05;50.60;;;7.40;95.50;;;;;;5051768;28;20077;-81
2021/11/16 05:43:25;;;;;;;110.47;53.25;;;7.30;95.50;;;;;;5051342;28;20032;-80
2021/11/16 05:45:52;;;;;;;114.85;55.80;;;7.30;95.50;;;;;;5052506;28;20047;-81
2021/11/16 05:48:20;;;;;;;108.55;52.25;;;7.40;95.50;;;;;;5067145;28;20497;-81
2021/11/16 05:50:46;;;;;;;113.68;54.92;;;7.30;95.50;;;;;;5054807;28;20432;-81
2021/11/16 05:53:15;;;;;;;108.63;53.05;;;7.30;95.60;;;;;;5054583;28;20047;-81
2021/11/16 05:55:41;;;;;;;118.70;55.20;;;7.20;95.70;;;;;;5054974;28;20043;-80
2021/11/16 05:58:06;;;;;;;103.75;51.13;;;7.20;95.70;;;;;;5054057;28;20282;-81
2021/11/16 06:00:32;;;;;;;108.10;52.60;;;7.20;95.70;;;;;;5050334;28;20041;-81
2021/11/16 06:02:57;;;;;;;120.45;54.65;;;7.20;95.70;;;;;;5054517;28;20027;-81
2021/11/16 06:05:23;;;;;;;104.63;51.85;;;7.30;95.80;;;;;;5054982;28;20032;-81
2021/11/16 06:07:49;;;;;;;116.43;55.67;;;7.30;95.80;;;;;;5073527;28;20037;-81
2021/11/16 06:10:15;;;;;;;103.57;51.85;;;7.30;95.80;;;;;;5074093;28;20044;-82
2021/11/16 06:12:41;;;;;;;109.40;53.88;;;7.30;95.70;;;;;;5076927;28;20140;-81
2021/11/16 06:15:08;;;;;;;114.68;53.55;;;7.30;95.70;;;;;;5074619;28;20048;-81
2021/11/16 06:17:34;;;;;;;111.72;55.10;;;7.30;95.80;;;;;;5056370;28;20520;-81
2021/11/16 06:20:00;;;;;;;120.80;57.10;;;7.30;95.80;;;;;;5035954;28;20041;-81
2021/11/16 06:22:26;;;;;;;127.22;58.33;;;7.30;95.80;;;;;;5037505;28;20028;-81
2021/11/16 06:24:52;;;;;;;133.27;61.80;;;7.30;95.80;;;;;;5036364;28;20025;-82
2021/11/16 06:27:18;;;;;;;132.43;59.95;;;7.30;95.80;;;;;;5054116;28;20043;-81
2021/11/16 06:29:44;;;;;;;124.88;57.58;;;7.20;95.80;;;;;;5039826;28;20073;-81
2021/11/16 06:32:10;;;;;;;138.25;59.78;;;7.20;95.80;;;;;;5073523;28;20029;-81
2021/11/16 06:34:37;;;;;;;133.93;59.42;;;7.20;95.80;;;;;;5073146;28;20021;-81
2021/11/16 06:37:04;;;;;;;155.48;63.63;;;7.20;95.80;;;;;;5055715;28;20063;-81
2021/11/16 06:39:29;;;;;;;128.60;57.47;;;7.10;95.80;;;;;;5029827;28;20037;-81
2021/11/16 06:41:55;;;;;;;145.57;61.75;;;7.10;95.90;;;;;;5054436;28;20027;-81
2021/11/16 06:44:22;;;;;;;138.40;59.40;;;7.10;96.20;;;;;;5034362;28;20672;-81
2021/11/16 06:46:49;;;;;;;125.57;57.28;;;7.10;96.00;;;;;;5066217;28;20013;-81
2021/11/16 06:49:16;;;;;;;142.63;60.97;;;7.10;96.00;;;;;;5053645;28;20064;-81
2021/11/16 06:51:44;;;;;;;129.18;58.25;;;7.10;96.30;;;;;;5055495;28;20028;-81
2021/11/16 06:54:16;;;;;;;129.23;57.13;;;7.10;96.00;;;;;;5073041;28;20496;-81
2021/11/16 06:56:45;;;;;;;128.43;56.08;;;7.10;96.10;;;;;;5055107;28;20036;-82
2021/11/16 06:59:11;;;;;;;125.72;57.35;;;7.10;96.10;;;;;;5035138;28;20032;-81
2021/11/16 07:01:37;;;;;;;124.82;56.15;;;7.20;96.10;;;;;;5054693;28;20102;-81
2021/11/16 07:04:09;;;;;;;143.38;60.33;;;7.10;96.10;;;;;;5038091;28;20032;-81
2021/11/16 07:06:42;;;;;;;125.05;57.35;;;7.10;96.10;;;;;;5055313;28;20036;-81
2021/11/16 07:09:11;;;;;;;131.27;57.40;;;7.10;96.40;;;;;;5072464;28;20066;-82
2021/11/16 07:11:50;;;;;;;127.60;55.97;;;7.10;96.20;;;;;;5070198;28;20504;-82
2021/11/16 07:14:19;;;;;;;129.50;58.45;;;7.10;96.30;;;;;;5070577;28;20448;-82
2021/11/16 07:16:53;;;;;;;142.90;59.65;;;7.10;96.20;;;;;;5070216;28;20029;-82
2021/11/16 07:19:33;;;;;;;146.57;59.60;;;7.10;96.30;;;;;;5070280;28;20486;-82
2021/11/16 07:22:03;;;;;;;132.13;57.40;;;7.10;96.60;;;;;;5055073;28;20032;-82
2021/11/16 07:24:31;;;;;;;145.18;58.75;;;7.10;96.30;;;;;;5073284;28;20016;-82
2021/11/16 07:27:05;;;;;;;138.80;59.42;;;7.10;96.30;;;;;;5073055;28;20024;-82
2021/11/16 07:29:38;;;;;;;143.10;59.65;;;7.10;96.40;;;;;;5072949;28;20508;-82
2021/11/16 07:32:05;;;;;;;144.40;60.47;;;7.10;96.40;;;;;;5071751;28;20036;-82
2021/11/16 07:34:33;;;;;;;146.18;60.75;;;7.10;96.30;;;;;;5051621;28;20024;-82
2021/11/16 07:37:00;;;;;;;132.83;57.33;;;7.00;96.40;;;;;;5054171;28;20109;-82
2021/11/16 07:39:28;;;;;;;132.80;55.63;;;7.00;96.40;;;;;;5072395;28;20047;-82
2021/11/16 07:42:05;;;;;;;142.27;57.63;;;7.00;96.70;;;;;;5055315;28;20047;-82
2021/11/16 07:44:31;;;;;;;135.68;55.70;;;7.00;96.40;;;;;;5054850;28;20363;-82
2021/11/16 07:46:57;;;;;;;151.45;59.40;;;7.00;96.40;;;;;;5051191;28;20040;-82
2021/11/16 07:49:24;;;;;;;132.98;56.03;;;7.00;96.40;;;;;;5068547;28;20040;-82
2021/11/16 07:51:52;;;;;;;139.57;58.10;;;7.00;96.50;;;;;;5022998;28;20025;-82
2021/11/16 07:54:30;;;;;;;142.90;58.10;;;7.00;96.50;;;;;;5068542;28;20036;-79
2021/11/16 07:57:04;;;;;;;143.77;57.83;;;7.00;96.50;;;;;;5051379;28;20107;-83
2021/11/16 07:59:31;;;;;;;133.20;54.97;;;6.90;96.40;;;;;;5053693;28;20029;-83
2021/11/16 08:02:04;;;;;;;148.88;57.65;;;6.90;96.50;;;;;;5054625;28;20078;-83
2021/11/16 08:04:49;;;;;;;135.15;56.00;;;6.90;96.90;;;;;;5039352;28;20024;-83
2021/11/16 08:07:29;;;;;;;157.65;60.10;;;6.90;96.60;;;;;;5072885;28;20020;-82
2021/11/16 08:09:57;;;;;;;138.40;55.65;;;6.90;96.60;;;;;;5022322;28;20106;-82
2021/11/16 08:12:33;;;;;;;151.55;58.95;;;6.90;96.60;;;;;;5034639;28;20429;-82
2021/11/16 08:15:07;;;;;;;144.10;59.20;;;6.90;96.60;;;;;;5051400;28;20029;-83
2021/11/16 08:17:33;;;;;;;147.60;57.45;;;6.80;96.60;;;;;;5034882;28;20553;-82
2021/11/16 08:20:05;;;;;;;157.27;58.70;;;6.80;96.60;;;;;;5034920;28;20114;-82
2021/11/16 08:22:31;;;;;;;145.77;59.80;;;6.80;96.70;;;;;;5052406;28;20057;-83
2021/11/16 08:24:57;;;;;;;145.90;56.95;;;6.80;97.00;;;;;;5063213;28;20029;-83
2021/11/16 08:27:29;;;;;;;138.20;54.85;;;6.80;96.70;;;;;;5052546;28;20119;-83
2021/11/16 08:30:10;;;;;;;150.23;56.20;;;6.80;96.70;;;;;;5058300;28;20441;-83
2021/11/16 08:32:41;;;;;;;143.52;56.67;;;6.80;96.70;;;;;;5055744;28;20050;-83
2021/11/16 08:35:13;;;;;;;155.23;58.22;;;6.80;97.00;;;;;;5072597;28;20063;-83
2021/11/16 08:37:41;;;;;;;150.30;56.45;;;6.80;97.00;;;;;;5072646;28;20033;-83
2021/11/16 08:40:13;;;;;;;135.18;51.50;;;6.80;96.70;;;;;;5072666;28;20017;-83
2021/11/16 08:42:52;;;;;;;131.68;53.10;;;6.80;96.80;;;;;;5072324;28;20036;-83
2021/11/16 08:45:23;;;;;;;138.93;55.70;;;6.70;96.80;;;;;;5054606;28;20016;-83
2021/11/16 08:47:53;;;;;;;143.15;54.85;;;6.80;96.80;;;;;;5072429;28;20774;-83
2021/11/16 08:50:22;;;;;;;137.15;53.88;;;6.80;96.80;;;;;;5072526;28;20028;-83
2021/11/16 08:52:48;;;;;;;136.82;53.15;;;6.80;96.90;;;;;;5054395;28;20054;-83
2021/11/16 08:55:20;;;;;;;139.57;53.58;;;6.80;96.90;;;;;;5037438;28;20033;-83
2021/11/16 08:57:49;;;;;;;139.85;53.72;;;6.90;97.00;;;;;;5035913;28;20079;-83
2021/11/16 09:00:21;;;;;;;128.82;52.30;;;6.80;96.90;;;;;;5064929;28;20393;-83
2021/11/16 09:02:47;;;;;;;138.25;51.85;;;6.80;96.90;;;;;;5075945;28;20024;-83
2021/11/16 09:05:17;;;;;;;131.77;50.65;;;6.90;97.00;;;;;;5057008;28;20075;-82
2021/11/16 09:07:57;;;;;;;128.55;51.08;;;6.90;97.00;;;;;;5054642;28;20493;-83
2021/11/16 09:10:31;;;;;;;132.38;51.33;;;6.80;96.90;;;;;;5057428;28;20520;-82
2021/11/16 09:12:59;;;;;;;130.30;50.80;;;6.90;96.90;;;;;;5049406;28;20078;-83
2021/11/16 09:15:41;;;;;;;132.82;51.83;;;6.80;96.90;;;;;;5038421;28;20029;-83
2021/11/16 09:18:16;;;;;;;121.35;50.13;;;6.90;97.00;;;;;;5051720;28;20059;-82
2021/11/16 09:20:44;;;;;;;125.43;49.33;;;6.80;96.90;;;;;;5054437;28;20029;-82
2021/11/16 09:23:21;;;;;;;147.80;52.25;;;6.80;96.90;;;;;;5054258;28;20021;-82
2021/11/16 09:25:51;;;;;;;136.48;50.10;;;6.80;96.90;;;;;;5054955;28;20378;-82
2021/11/16 09:28:34;;;;;;;120.03;49.28;;;6.80;96.90;;;;;;5037344;28;20389;-82
2021/11/16 09:31:20;;;;;;;125.43;49.13;;;6.80;97.00;;;;;;5055323;28;20028;-81
2021/11/16 09:33:46;;;;;;;123.97;48.60;;;6.80;97.00;;;;;;5054009;28;20483;-83
2021/11/16 09:36:20;;;;;;;128.05;50.38;;;6.90;97.10;;;;;;5072271;28;20028;-83
2021/11/16 09:38:49;;;;;;;132.57;51.25;;;6.90;97.00;;;;;;5054170;28;20040;-82
2021/11/16 09:41:19;;;;;;;;;;;6.90;97.00;;;;;;5039052;28;20515;-83
2021/11/16 09:43:45;;;;;;;121.32;47.22;;;6.90;96.90;;;;;;5052012;28;19904;-82
2021/11/16 09:46:14;;;;;;;124.63;46.97;;;6.90;97.00;;;;;;5053978;28;20110;-82
2021/11/16 09:48:40;;;;;;;;;;;6.90;97.00;;;;;;5056691;28;20401;-82
2021/11/16 09:51:19;;;;;;;124.00;46.88;;;6.90;97.00;;;;;;5052702;28;19934;-82
2021/11/16 09:53:47;;;;;;;126.75;47.70;;;6.90;97.00;;;;;;5072964;28;20052;-85
2021/11/16 09:56:32;;;;;;;124.13;47.92;;;6.90;97.10;;;;;;5038234;28;20071;-83
2021/11/16 09:58:58;;;;;;;116.82;46.55;;;7.10;97.20;;;;;;5040357;28;20048;-85
2021/11/16 10:01:28;;;;;;;115.20;46.28;;;7.10;97.10;;;;;;5036771;28;20044;-85
2021/11/16 10:04:07;;;;;;;121.18;47.65;;;7.20;97.10;;;;;;5056456;28;20035;-85
2021/11/16 10:06:33;;;;;;;119.50;47.85;;;7.30;97.00;;;;;;5074665;28;20369;-85
2021/11/16 10:08:59;;;;;;;102.95;45.25;;;7.30;96.80;;;;;;5039526;28;20024;-84
2021/11/16 10:11:26;;;;;;;110.70;46.67;;;7.40;96.70;;;;;;5040414;28;20092;-83
2021/11/16 10:13:51;;;;;;;111.07;45.00;;;7.50;96.70;;;;;;5040185;28;20122;-82
2021/11/16 10:16:17;;;;;;;104.03;44.78;;;7.60;96.60;;;;;;5039702;28;20167;-82
2021/11/16 10:18:42;;;;;;;112.32;46.60;;;7.50;96.50;;;;;;5039738;28;20359;-83
2021/11/16 10:21:09;;;;;;;111.53;48.40;;;7.60;96.50;;;;;;5056614;28;20047;-83
2021/11/16 10:23:41;;;;;;;113.90;46.85;;;7.60;96.30;;;;;;5023518;28;20024;-83
2021/11/16 10:26:08;;;;;;;107.32;44.55;;;7.60;96.20;;;;;;5069106;28;20024;-83
2021/11/16 10:28:37;;;;;;;107.68;45.30;;;7.60;96.10;;;;;;5074271;28;20027;-83
2021/11/16 10:31:04;;;;;;;116.65;47.05;;;7.60;96.00;;;;;;5056084;28;20033;-83
2021/11/16 10:33:37;;;;;;;109.80;45.42;;;7.60;96.00;;;;;;5039778;28;20033;-82
2021/11/16 10:36:14;;;;;;;114.43;46.88;;;7.60;96.30;;;;;;5074147;28;20028;-83
2021/11/16 10:38:47;;;;;;;115.10;47.83;;;7.60;96.00;;;;;;5064808;28;20086;-83
2021/11/16 10:41:32;;;;;;;114.88;46.38;;;7.60;95.90;;;;;;5046878;28;20040;-83
2021/11/16 10:44:08;;;;;;;107.70;43.63;;;7.70;95.90;;;;;;5073632;28;20025;-83
2021/11/16 10:46:41;;;;;;;106.80;46.47;;;7.70;95.90;;;;;;5072769;28;20553;-83
2021/11/16 10:49:16;;;;;;;98.03;43.20;;;7.60;95.80;;;;;;5073167;28;20040;-83
2021/11/16 10:51:44;;;;;;;120.22;47.28;;;7.70;95.80;;;;;;5052962;28;20036;-83
2021/11/16 10:54:12;;;;;;;111.35;44.95;;;7.60;95.90;;;;;;5069482;28;20036;-83
2021/11/16 10:56:40;;;;;;;111.30;45.60;;;7.70;95.90;;;;;;5051372;28;20072;-84
2021/11/16 10:59:15;;;;;;;110.80;44.75;;;7.70;95.90;;;;;;5052227;28;20059;-85
2021/11/16 11:01:54;;;;;;;101.35;44.30;;;7.80;95.80;;;;;;5070024;28;20041;-85
2021/11/16 11:04:22;;;;;;;118.03;46.60;;;7.80;95.70;;;;;;5051147;28;20033;-83
2021/11/16 11:06:53;;;;;;;115.20;48.13;;;7.80;95.70;;;;;;5035192;28;20040;-83
2021/11/16 11:09:19;;;;;;;108.30;47.08;;;7.80;95.70;;;;;;5020795;28;20283;-83
2021/11/16 11:11:48;;;;;;;111.53;47.15;;;7.70;95.60;;;;;;5059946;28;20039;-83
2021/11/16 11:14:36;;;;;;;109.65;45.40;;;7.70;95.60;;;;;;5069767;28;20028;-84
2021/11/16 11:17:05;;;;;;;108.35;45.53;;;7.80;95.70;;;;;;5072394;28;20037;-80
2021/11/16 11:19:35;;;;;;;104.82;45.90;;;7.70;95.60;;;;;;5046962;28;20035;-80
2021/11/16 11:22:18;;;;;;;109.18;46.10;;;7.70;95.50;;;;;;5049349;28;20031;-80
2021/11/16 11:29:51;;;;;;;99.85;44.78;;;7.70;95.50;;;;;;5055834;28;20029;-80
2021/11/16 11:32:24;;;;;;;112.13;45.67;;;7.60;95.40;;;;;;5073279;28;20025;-81
2021/11/16 11:35:10;;;;;;;97.50;43.63;;;7.60;95.50;;;;;;5055216;28;20024;-80
2021/11/16 11:37:38;;;;;;;114.05;47.75;;;7.70;95.60;;;;;;5054278;28;20025;-80
2021/11/16 11:40:26;;;;;;;112.57;46.05;;;7.60;95.60;;;;;;5073087;28;20126;-80
2021/11/16 11:42:59;;;;;;;109.57;45.97;;;7.60;95.70;;;;;;5035187;28;20017;-80
2021/11/16 11:45:30;;;;;;;108.65;43.60;;;7.60;95.70;;;;;;5052605;28;20388;-80
2021/11/16 11:47:58;;;;;;;95.05;42.45;;;7.60;95.70;;;;;;5034091;28;20501;-80
2021/11/16 11:50:37;;;;;;;111.10;45.80;;;7.60;95.80;;;;;;5060693;28;20167;-79
2021/11/16 11:53:08;;;;;;;101.50;46.42;;;7.60;95.80;;;;;;5061098;28;20032;-80
2021/11/16 11:55:40;;;;;;;114.45;45.95;;;7.70;95.80;;;;;;5070847;28;20028;-82
2021/11/16 11:58:06;;;;;;;111.47;47.40;;;7.70;95.70;;;;;;5052433;28;20117;-82
2021/11/16 12:00:37;;;;;;;118.20;46.95;;;7.70;95.60;;;;;;5052063;28;20041;-82
2021/11/16 12:03:04;;;;;;;107.75;45.53;;;7.60;95.50;;;;;;5053442;28;20033;-82
2021/11/16 12:05:32;;;;;;;106.82;44.85;;;7.60;95.50;;;;;;5072170;28;20074;-82
2021/11/16 12:07:58;;;;;;;106.07;42.55;;;7.60;95.50;;;;;;5052339;28;20036;-82
2021/11/16 12:10:24;;;;;;;112.30;46.33;;;7.60;95.50;;;;;;5036704;28;20028;-82
2021/11/16 12:12:51;;;;;;;93.35;43.20;;;7.60;95.50;;;;;;5036331;28;20060;-82
2021/11/16 12:15:25;;;;;;;109.18;45.97;;;7.60;95.50;;;;;;5052815;28;20484;-82
2021/11/16 12:17:54;;;;;;;115.07;46.80;;;7.60;95.50;;;;;;5070773;28;20041;-83
2021/11/16 12:20:39;;;;;;;108.30;46.33;;;7.60;95.50;;;;;;5053007;28;20469;-82
2021/11/16 12:23:08;;;;;;;109.57;45.42;;;7.60;95.50;;;;;;5053690;28;20370;-82
2021/11/16 12:25:34;;;;;;;104.63;45.08;;;7.60;95.50;;;;;;5053357;28;20067;-82
2021/11/16 12:28:00;;;;;;;100.82;43.55;;;7.60;95.50;;;;;;5036328;28;20053;-82
2021/11/16 12:30:47;;;;;;;99.80;42.08;;;7.50;95.60;;;;;;5046849;28;20067;-82
2021/11/16 12:33:12;;;;;;;101.22;43.33;;;7.50;95.60;;;;;;5034742;28;20420;-82
2021/11/16 12:35:47;;;;;;;94.97;42.42;;;7.50;95.90;;;;;;5037512;28;20025;-82
2021/11/16 12:38:15;;;;;;;113.03;46.38;;;7.50;95.60;;;;;;5054721;28;20535;-82
2021/11/16 12:40:41;;;;;;;103.00;44.65;;;7.50;95.50;;;;;;5037055;28;20108;-82
2021/11/16 12:43:07;;;;;;;104.50;44.22;;;7.50;95.50;;;;;;5020784;28;20041;-82
2021/11/16 12:45:48;;;;;;;96.05;42.55;;;7.50;95.60;;;;;;5036632;28;20032;-82
2021/11/16 12:48:16;;;;;;;100.70;42.95;;;7.50;95.70;;;;;;5036582;28;20041;-82
2021/11/16 12:51:04;;;;;;;109.43;43.53;;;7.50;95.70;;;;;;5054690;28;20035;-82
2021/11/16 12:53:48;;;;;;;112.20;45.15;;;7.50;95.70;;;;;;5036957;28;20025;-82
2021/11/16 12:56:14;;;;;;;92.25;41.38;;;7.60;95.70;;;;;;5036158;28;20127;-82
2021/11/16 12:58:49;;;;;;;103.78;44.33;;;7.50;95.70;;;;;;5043149;28;20040;-82
2021/11/16 13:01:38;;;;;;;103.47;44.42;;;7.50;95.70;;;;;;5053622;28;20103;-82